sensor_id;sensor_type;location;lat;lon;timestamp;P1;durP1;ratioP1;P2;durP2;ratioP2
72286;SDS011;60221;45.696;16.076;2023-07-13T00:01:32;11.50;;;4.80;;
72286;SDS011;60221;45.696;16.076;2023-07-13T00:03:59;11.40;;;4.70;;
72286;SDS011;60221;45.696;16.076;2023-07-13T00:06:26;10.20;;;4.80;;
72286;SDS011;60221;45.696;16.076;2023-07-13T00:08:57;12.70;;;4.80;;
72286;SDS011;60221;45.696;16.076;2023-07-13T00:11:23;12.30;;;4.60;;
72286;SDS011;60221;45.696;16.076;2023-07-13T00:13:51;12.30;;;4.50;;
72286;SDS011;60221;45.696;16.076;2023-07-13T00:16:18;10.30;;;4.90;;
72286;SDS011;60221;45.696;16.076;2023-07-13T00:18:46;14.70;;;4.90;;
72286;SDS011;60221;45.696;16.076;2023-07-13T00:21:12;10.70;;;4.90;;
72286;SDS011;60221;45.696;16.076;2023-07-13T00:23:40;11.80;;;4.80;;
72286;SDS011;60221;45.696;16.076;2023-07-13T00:26:08;13.70;;;4.90;;
72286;SDS011;60221;45.696;16.076;2023-07-13T00:28:37;11.70;;;4.30;;
72286;SDS011;60221;45.696;16.076;2023-07-13T00:31:05;12.30;;;4.80;;
72286;SDS011;60221;45.696;16.076;2023-07-13T00:33:35;11.60;;;5.30;;
72286;SDS011;60221;45.696;16.076;2023-07-13T00:36:02;14.50;;;4.50;;
72286;SDS011;60221;45.696;16.076;2023-07-13T00:38:29;17.40;;;4.90;;
72286;SDS011;60221;45.696;16.076;2023-07-13T00:40:56;10.80;;;4.20;;
72286;SDS011;60221;45.696;16.076;2023-07-13T00:43:25;11.00;;;4.90;;
72286;SDS011;60221;45.696;16.076;2023-07-13T00:48:31;11.90;;;4.60;;
72286;SDS011;60221;45.696;16.076;2023-07-13T00:50:59;12.90;;;4.80;;
72286;SDS011;60221;45.696;16.076;2023-07-13T00:53:27;13.40;;;5.10;;
72286;SDS011;60221;45.696;16.076;2023-07-13T00:55:54;11.90;;;4.90;;
72286;SDS011;60221;45.696;16.076;2023-07-13T00:58:23;13.90;;;4.90;;
72286;SDS011;60221;45.696;16.076;2023-07-13T01:00:51;11.10;;;4.50;;
72286;SDS011;60221;45.696;16.076;2023-07-13T01:03:19;12.70;;;4.50;;
72286;SDS011;60221;45.696;16.076;2023-07-13T01:05:47;10.10;;;4.20;;
72286;SDS011;60221;45.696;16.076;2023-07-13T01:08:14;11.40;;;4.90;;
72286;SDS011;60221;45.696;16.076;2023-07-13T01:10:42;9.70;;;4.90;;
72286;SDS011;60221;45.696;16.076;2023-07-13T01:13:17;12.70;;;5.20;;
72286;SDS011;60221;45.696;16.076;2023-07-13T01:15:45;11.60;;;5.20;;
72286;SDS011;60221;45.696;16.076;2023-07-13T01:18:14;16.80;;;5.70;;
72286;SDS011;60221;45.696;16.076;2023-07-13T01:20:41;14.70;;;5.30;;
72286;SDS011;60221;45.696;16.076;2023-07-13T01:23:10;10.90;;;5.10;;
72286;SDS011;60221;45.696;16.076;2023-07-13T01:25:37;11.80;;;4.20;;
72286;SDS011;60221;45.696;16.076;2023-07-13T01:28:05;13.30;;;5.20;;
72286;SDS011;60221;45.696;16.076;2023-07-13T01:30:32;11.60;;;5.20;;
72286;SDS011;60221;45.696;16.076;2023-07-13T01:33:01;15.70;;;4.50;;
72286;SDS011;60221;45.696;16.076;2023-07-13T01:35:29;14.20;;;5.30;;
72286;SDS011;60221;45.696;16.076;2023-07-13T01:37:56;10.60;;;5.40;;
72286;SDS011;60221;45.696;16.076;2023-07-13T01:40:23;11.10;;;4.60;;
72286;SDS011;60221;45.696;16.076;2023-07-13T01:42:51;11.30;;;4.50;;
72286;SDS011;60221;45.696;16.076;2023-07-13T01:45:19;12.10;;;4.70;;
72286;SDS011;60221;45.696;16.076;2023-07-13T01:47:46;12.10;;;4.60;;
72286;SDS011;60221;45.696;16.076;2023-07-13T01:50:13;10.00;;;4.50;;
72286;SDS011;60221;45.696;16.076;2023-07-13T01:52:40;12.50;;;4.70;;
72286;SDS011;60221;45.696;16.076;2023-07-13T01:55:07;13.00;;;5.30;;
72286;SDS011;60221;45.696;16.076;2023-07-13T01:57:34;10.50;;;5.20;;
72286;SDS011;60221;45.696;16.076;2023-07-13T02:00:05;13.60;;;4.30;;
72286;SDS011;60221;45.696;16.076;2023-07-13T02:02:41;13.20;;;4.80;;
72286;SDS011;60221;45.696;16.076;2023-07-13T02:05:12;11.60;;;4.50;;
72286;SDS011;60221;45.696;16.076;2023-07-13T02:07:40;11.30;;;4.90;;
72286;SDS011;60221;45.696;16.076;2023-07-13T02:10:08;13.70;;;5.10;;
72286;SDS011;60221;45.696;16.076;2023-07-13T02:12:36;9.70;;;4.60;;
72286;SDS011;60221;45.696;16.076;2023-07-13T02:15:04;10.60;;;4.40;;
72286;SDS011;60221;45.696;16.076;2023-07-13T02:17:31;13.60;;;5.10;;
72286;SDS011;60221;45.696;16.076;2023-07-13T02:19:59;11.70;;;4.50;;
72286;SDS011;60221;45.696;16.076;2023-07-13T02:22:25;9.70;;;4.70;;
72286;SDS011;60221;45.696;16.076;2023-07-13T02:24:54;12.60;;;5.40;;
72286;SDS011;60221;45.696;16.076;2023-07-13T02:27:21;15.30;;;5.30;;
72286;SDS011;60221;45.696;16.076;2023-07-13T02:29:49;13.90;;;5.10;;
72286;SDS011;60221;45.696;16.076;2023-07-13T02:32:19;13.20;;;4.80;;
72286;SDS011;60221;45.696;16.076;2023-07-13T02:34:46;14.40;;;5.40;;
72286;SDS011;60221;45.696;16.076;2023-07-13T02:37:13;13.70;;;4.40;;
72286;SDS011;60221;45.696;16.076;2023-07-13T02:39:40;16.30;;;4.60;;
72286;SDS011;60221;45.696;16.076;2023-07-13T02:42:08;14.80;;;5.10;;
72286;SDS011;60221;45.696;16.076;2023-07-13T02:44:36;9.40;;;4.40;;
72286;SDS011;60221;45.696;16.076;2023-07-13T02:47:03;10.20;;;5.40;;
72286;SDS011;60221;45.696;16.076;2023-07-13T02:49:30;17.40;;;5.20;;
72286;SDS011;60221;45.696;16.076;2023-07-13T02:51:58;14.90;;;6.30;;
72286;SDS011;60221;45.696;16.076;2023-07-13T02:54:24;12.20;;;5.10;;
72286;SDS011;60221;45.696;16.076;2023-07-13T02:56:52;11.70;;;5.40;;
72286;SDS011;60221;45.696;16.076;2023-07-13T02:59:18;15.60;;;5.90;;
72286;SDS011;60221;45.696;16.076;2023-07-13T03:01:45;15.40;;;6.20;;
72286;SDS011;60221;45.696;16.076;2023-07-13T03:04:12;12.50;;;5.60;;
72286;SDS011;60221;45.696;16.076;2023-07-13T03:06:39;12.30;;;5.30;;
72286;SDS011;60221;45.696;16.076;2023-07-13T03:09:08;15.50;;;6.00;;
72286;SDS011;60221;45.696;16.076;2023-07-13T03:11:36;13.00;;;6.60;;
72286;SDS011;60221;45.696;16.076;2023-07-13T03:14:25;17.60;;;7.40;;
72286;SDS011;60221;45.696;16.076;2023-07-13T03:16:52;14.80;;;7.40;;
72286;SDS011;60221;45.696;16.076;2023-07-13T03:19:20;15.30;;;7.10;;
72286;SDS011;60221;45.696;16.076;2023-07-13T03:21:49;16.00;;;7.80;;
72286;SDS011;60221;45.696;16.076;2023-07-13T03:24:16;17.60;;;7.50;;
72286;SDS011;60221;45.696;16.076;2023-07-13T03:26:43;17.80;;;7.30;;
72286;SDS011;60221;45.696;16.076;2023-07-13T03:29:10;14.00;;;7.00;;
72286;SDS011;60221;45.696;16.076;2023-07-13T03:31:37;19.00;;;8.00;;
72286;SDS011;60221;45.696;16.076;2023-07-13T03:34:04;17.60;;;6.70;;
72286;SDS011;60221;45.696;16.076;2023-07-13T03:36:32;14.60;;;6.40;;
72286;SDS011;60221;45.696;16.076;2023-07-13T03:39:03;11.20;;;5.90;;
72286;SDS011;60221;45.696;16.076;2023-07-13T03:41:35;13.30;;;6.20;;
72286;SDS011;60221;45.696;16.076;2023-07-13T03:44:03;14.80;;;6.30;;
72286;SDS011;60221;45.696;16.076;2023-07-13T03:46:30;18.80;;;6.50;;
72286;SDS011;60221;45.696;16.076;2023-07-13T03:48:57;10.70;;;5.90;;
72286;SDS011;60221;45.696;16.076;2023-07-13T03:51:24;10.30;;;6.30;;
72286;SDS011;60221;45.696;16.076;2023-07-13T03:53:51;10.70;;;5.70;;
72286;SDS011;60221;45.696;16.076;2023-07-13T03:56:19;13.00;;;6.20;;
72286;SDS011;60221;45.696;16.076;2023-07-13T03:58:47;14.50;;;6.50;;
72286;SDS011;60221;45.696;16.076;2023-07-13T04:01:17;14.30;;;6.20;;
72286;SDS011;60221;45.696;16.076;2023-07-13T04:03:45;12.60;;;5.90;;
72286;SDS011;60221;45.696;16.076;2023-07-13T04:06:15;14.80;;;6.10;;
72286;SDS011;60221;45.696;16.076;2023-07-13T04:08:43;16.90;;;6.20;;
72286;SDS011;60221;45.696;16.076;2023-07-13T04:11:10;12.70;;;6.00;;
72286;SDS011;60221;45.696;16.076;2023-07-13T04:13:37;10.10;;;5.90;;
72286;SDS011;60221;45.696;16.076;2023-07-13T04:16:04;10.90;;;5.90;;
72286;SDS011;60221;45.696;16.076;2023-07-13T04:18:31;12.80;;;5.30;;
72286;SDS011;60221;45.696;16.076;2023-07-13T04:20:57;12.40;;;5.90;;
72286;SDS011;60221;45.696;16.076;2023-07-13T04:23:24;13.70;;;6.00;;
72286;SDS011;60221;45.696;16.076;2023-07-13T04:25:51;14.70;;;6.20;;
72286;SDS011;60221;45.696;16.076;2023-07-13T04:28:22;16.30;;;5.00;;
72286;SDS011;60221;45.696;16.076;2023-07-13T04:30:50;17.60;;;6.30;;
72286;SDS011;60221;45.696;16.076;2023-07-13T04:33:17;13.50;;;6.00;;
72286;SDS011;60221;45.696;16.076;2023-07-13T04:35:44;11.90;;;5.50;;
72286;SDS011;60221;45.696;16.076;2023-07-13T04:38:13;11.00;;;5.60;;
72286;SDS011;60221;45.696;16.076;2023-07-13T04:40:44;11.30;;;5.40;;
72286;SDS011;60221;45.696;16.076;2023-07-13T04:43:11;11.00;;;5.60;;
72286;SDS011;60221;45.696;16.076;2023-07-13T04:45:38;14.00;;;6.40;;
72286;SDS011;60221;45.696;16.076;2023-07-13T04:48:05;12.70;;;6.10;;
72286;SDS011;60221;45.696;16.076;2023-07-13T04:50:32;12.20;;;5.20;;
72286;SDS011;60221;45.696;16.076;2023-07-13T04:52:59;18.50;;;5.80;;
72286;SDS011;60221;45.696;16.076;2023-07-13T04:55:26;16.10;;;5.10;;
72286;SDS011;60221;45.696;16.076;2023-07-13T04:57:57;8.60;;;4.60;;
72286;SDS011;60221;45.696;16.076;2023-07-13T05:00:27;12.80;;;5.20;;
72286;SDS011;60221;45.696;16.076;2023-07-13T05:02:54;11.10;;;5.00;;
72286;SDS011;60221;45.696;16.076;2023-07-13T05:05:22;10.60;;;4.30;;
72286;SDS011;60221;45.696;16.076;2023-07-13T05:07:49;6.80;;;2.90;;
72286;SDS011;60221;45.696;16.076;2023-07-13T05:10:16;8.40;;;4.40;;
72286;SDS011;60221;45.696;16.076;2023-07-13T05:12:43;6.90;;;3.10;;
72286;SDS011;60221;45.696;16.076;2023-07-13T05:15:10;6.30;;;2.00;;
72286;SDS011;60221;45.696;16.076;2023-07-13T05:17:37;5.70;;;1.40;;
72286;SDS011;60221;45.696;16.076;2023-07-13T05:20:06;5.80;;;1.90;;
72286;SDS011;60221;45.696;16.076;2023-07-13T05:22:33;4.40;;;2.10;;
72286;SDS011;60221;45.696;16.076;2023-07-13T05:25:04;4.40;;;1.70;;
72286;SDS011;60221;45.696;16.076;2023-07-13T05:27:31;5.50;;;1.90;;
72286;SDS011;60221;45.696;16.076;2023-07-13T05:29:58;6.70;;;1.90;;
72286;SDS011;60221;45.696;16.076;2023-07-13T05:32:24;4.50;;;1.60;;
72286;SDS011;60221;45.696;16.076;2023-07-13T05:34:52;8.50;;;1.90;;
72286;SDS011;60221;45.696;16.076;2023-07-13T05:37:19;3.90;;;1.70;;
72286;SDS011;60221;45.696;16.076;2023-07-13T05:39:46;4.70;;;2.00;;
72286;SDS011;60221;45.696;16.076;2023-07-13T05:42:13;4.90;;;2.30;;
72286;SDS011;60221;45.696;16.076;2023-07-13T05:44:39;3.40;;;1.70;;
72286;SDS011;60221;45.696;16.076;2023-07-13T05:47:06;9.80;;;1.70;;
72286;SDS011;60221;45.696;16.076;2023-07-13T05:49:34;5.80;;;1.90;;
72286;SDS011;60221;45.696;16.076;2023-07-13T05:52:01;4.60;;;2.00;;
72286;SDS011;60221;45.696;16.076;2023-07-13T05:54:28;3.80;;;1.70;;
72286;SDS011;60221;45.696;16.076;2023-07-13T05:56:55;4.80;;;1.80;;
72286;SDS011;60221;45.696;16.076;2023-07-13T05:59:22;6.00;;;2.00;;
72286;SDS011;60221;45.696;16.076;2023-07-13T06:01:49;6.20;;;1.80;;
72286;SDS011;60221;45.696;16.076;2023-07-13T06:04:19;6.80;;;2.20;;
72286;SDS011;60221;45.696;16.076;2023-07-13T06:06:47;4.90;;;2.10;;
72286;SDS011;60221;45.696;16.076;2023-07-13T06:09:14;5.20;;;1.90;;
72286;SDS011;60221;45.696;16.076;2023-07-13T06:11:41;4.00;;;1.90;;
72286;SDS011;60221;45.696;16.076;2023-07-13T06:14:08;5.70;;;1.90;;
72286;SDS011;60221;45.696;16.076;2023-07-13T06:16:35;3.80;;;1.90;;
72286;SDS011;60221;45.696;16.076;2023-07-13T06:19:04;4.30;;;2.00;;
72286;SDS011;60221;45.696;16.076;2023-07-13T06:21:31;3.60;;;1.60;;
72286;SDS011;60221;45.696;16.076;2023-07-13T06:23:58;5.10;;;2.00;;
72286;SDS011;60221;45.696;16.076;2023-07-13T06:26:25;4.80;;;2.10;;
72286;SDS011;60221;45.696;16.076;2023-07-13T06:28:52;4.80;;;2.20;;
72286;SDS011;60221;45.696;16.076;2023-07-13T06:31:19;7.30;;;2.10;;
72286;SDS011;60221;45.696;16.076;2023-07-13T06:33:46;3.00;;;1.70;;
72286;SDS011;60221;45.696;16.076;2023-07-13T06:36:13;3.70;;;1.90;;
72286;SDS011;60221;45.696;16.076;2023-07-13T06:38:40;4.50;;;2.30;;
72286;SDS011;60221;45.696;16.076;2023-07-13T06:41:07;4.10;;;2.00;;
72286;SDS011;60221;45.696;16.076;2023-07-13T06:43:35;3.10;;;1.70;;
72286;SDS011;60221;45.696;16.076;2023-07-13T06:46:02;3.60;;;1.60;;
72286;SDS011;60221;45.696;16.076;2023-07-13T06:48:29;3.20;;;1.80;;
72286;SDS011;60221;45.696;16.076;2023-07-13T06:50:56;5.60;;;1.80;;
72286;SDS011;60221;45.696;16.076;2023-07-13T06:53:23;3.90;;;1.90;;
72286;SDS011;60221;45.696;16.076;2023-07-13T06:55:50;4.50;;;1.90;;
72286;SDS011;60221;45.696;16.076;2023-07-13T06:58:18;5.90;;;2.40;;
72286;SDS011;60221;45.696;16.076;2023-07-13T07:00:45;3.90;;;1.70;;
72286;SDS011;60221;45.696;16.076;2023-07-13T07:03:13;3.40;;;2.00;;
72286;SDS011;60221;45.696;16.076;2023-07-13T07:05:40;3.50;;;2.00;;
72286;SDS011;60221;45.696;16.076;2023-07-13T07:08:07;3.60;;;1.90;;
72286;SDS011;60221;45.696;16.076;2023-07-13T07:10:34;3.90;;;2.00;;
72286;SDS011;60221;45.696;16.076;2023-07-13T07:15:49;3.30;;;1.80;;
72286;SDS011;60221;45.696;16.076;2023-07-13T07:18:16;3.70;;;2.00;;
72286;SDS011;60221;45.696;16.076;2023-07-13T07:20:43;3.20;;;1.90;;
72286;SDS011;60221;45.696;16.076;2023-07-13T07:23:10;4.30;;;1.90;;
72286;SDS011;60221;45.696;16.076;2023-07-13T07:25:38;4.20;;;1.50;;
72286;SDS011;60221;45.696;16.076;2023-07-13T07:28:08;3.00;;;1.60;;
72286;SDS011;60221;45.696;16.076;2023-07-13T07:30:41;3.90;;;1.90;;
72286;SDS011;60221;45.696;16.076;2023-07-13T07:33:11;4.60;;;2.10;;
72286;SDS011;60221;45.696;16.076;2023-07-13T07:35:38;2.90;;;1.60;;
72286;SDS011;60221;45.696;16.076;2023-07-13T07:38:25;3.30;;;2.20;;
72286;SDS011;60221;45.696;16.076;2023-07-13T07:40:52;4.70;;;2.20;;
72286;SDS011;60221;45.696;16.076;2023-07-13T07:43:21;3.30;;;2.00;;
72286;SDS011;60221;45.696;16.076;2023-07-13T07:45:48;4.80;;;2.10;;
72286;SDS011;60221;45.696;16.076;2023-07-13T07:48:19;4.30;;;2.20;;
72286;SDS011;60221;45.696;16.076;2023-07-13T07:50:46;6.10;;;2.70;;
72286;SDS011;60221;45.696;16.076;2023-07-13T07:53:13;4.60;;;1.90;;
72286;SDS011;60221;45.696;16.076;2023-07-13T07:55:39;6.00;;;4.50;;
72286;SDS011;60221;45.696;16.076;2023-07-13T07:58:26;4.20;;;2.50;;
72286;SDS011;60221;45.696;16.076;2023-07-13T08:01:05;5.90;;;2.00;;
72286;SDS011;60221;45.696;16.076;2023-07-13T08:03:35;6.10;;;2.90;;
72286;SDS011;60221;45.696;16.076;2023-07-13T08:06:05;5.00;;;2.00;;
72286;SDS011;60221;45.696;16.076;2023-07-13T08:08:35;5.80;;;2.20;;
72286;SDS011;60221;45.696;16.076;2023-07-13T08:11:03;5.00;;;2.30;;
72286;SDS011;60221;45.696;16.076;2023-07-13T08:13:50;5.70;;;2.00;;
72286;SDS011;60221;45.696;16.076;2023-07-13T08:16:20;4.90;;;2.30;;
72286;SDS011;60221;45.696;16.076;2023-07-13T08:18:48;5.70;;;2.20;;
72286;SDS011;60221;45.696;16.076;2023-07-13T08:21:15;3.50;;;2.00;;
72286;SDS011;60221;45.696;16.076;2023-07-13T08:23:42;5.20;;;2.40;;
72286;SDS011;60221;45.696;16.076;2023-07-13T08:26:09;6.10;;;1.90;;
72286;SDS011;60221;45.696;16.076;2023-07-13T08:28:36;5.00;;;1.80;;
72286;SDS011;60221;45.696;16.076;2023-07-13T08:31:04;4.40;;;1.80;;
72286;SDS011;60221;45.696;16.076;2023-07-13T08:33:31;4.60;;;2.30;;
72286;SDS011;60221;45.696;16.076;2023-07-13T08:35:58;6.00;;;1.90;;
72286;SDS011;60221;45.696;16.076;2023-07-13T08:38:25;5.20;;;2.00;;
72286;SDS011;60221;45.696;16.076;2023-07-13T08:40:53;4.30;;;2.00;;
72286;SDS011;60221;45.696;16.076;2023-07-13T08:43:28;4.10;;;2.00;;
72286;SDS011;60221;45.696;16.076;2023-07-13T08:46:03;5.30;;;2.00;;
72286;SDS011;60221;45.696;16.076;2023-07-13T08:48:55;5.00;;;1.90;;
72286;SDS011;60221;45.696;16.076;2023-07-13T08:51:28;4.30;;;1.60;;
72286;SDS011;60221;45.696;16.076;2023-07-13T08:54:01;5.10;;;2.20;;
72286;SDS011;60221;45.696;16.076;2023-07-13T08:56:32;4.40;;;2.20;;
72286;SDS011;60221;45.696;16.076;2023-07-13T08:59:04;4.70;;;1.90;;
72286;SDS011;60221;45.696;16.076;2023-07-13T09:01:39;5.20;;;2.10;;
72286;SDS011;60221;45.696;16.076;2023-07-13T09:04:14;4.50;;;2.40;;
72286;SDS011;60221;45.696;16.076;2023-07-13T09:06:55;5.70;;;2.30;;
72286;SDS011;60221;45.696;16.076;2023-07-13T09:09:34;5.30;;;2.30;;
72286;SDS011;60221;45.696;16.076;2023-07-13T09:12:09;5.70;;;2.40;;
72286;SDS011;60221;45.696;16.076;2023-07-13T09:14:42;4.70;;;2.10;;
72286;SDS011;60221;45.696;16.076;2023-07-13T09:17:12;5.70;;;2.10;;
72286;SDS011;60221;45.696;16.076;2023-07-13T09:19:40;4.40;;;1.90;;
72286;SDS011;60221;45.696;16.076;2023-07-13T09:22:10;6.20;;;2.20;;
72286;SDS011;60221;45.696;16.076;2023-07-13T09:24:41;4.70;;;2.70;;
72286;SDS011;60221;45.696;16.076;2023-07-13T09:27:15;7.60;;;2.60;;
72286;SDS011;60221;45.696;16.076;2023-07-13T09:29:48;6.50;;;3.00;;
72286;SDS011;60221;45.696;16.076;2023-07-13T09:32:18;6.40;;;2.90;;
72286;SDS011;60221;45.696;16.076;2023-07-13T09:34:50;4.10;;;1.70;;
72286;SDS011;60221;45.696;16.076;2023-07-13T09:37:19;7.30;;;2.90;;
72286;SDS011;60221;45.696;16.076;2023-07-13T09:39:46;5.60;;;2.70;;
72286;SDS011;60221;45.696;16.076;2023-07-13T09:42:17;5.50;;;1.90;;
72286;SDS011;60221;45.696;16.076;2023-07-13T09:44:58;6.30;;;2.30;;
72286;SDS011;60221;45.696;16.076;2023-07-13T09:47:26;6.00;;;2.00;;
72286;SDS011;60221;45.696;16.076;2023-07-13T09:50:04;7.00;;;3.00;;
72286;SDS011;60221;45.696;16.076;2023-07-13T09:52:41;6.50;;;2.70;;
72286;SDS011;60221;45.696;16.076;2023-07-13T09:55:29;9.70;;;2.80;;
72286;SDS011;60221;45.696;16.076;2023-07-13T09:57:56;5.00;;;2.40;;
72286;SDS011;60221;45.696;16.076;2023-07-13T10:00:27;6.10;;;2.40;;
72286;SDS011;60221;45.696;16.076;2023-07-13T10:03:14;4.70;;;2.80;;
72286;SDS011;60221;45.696;16.076;2023-07-13T10:05:43;4.50;;;2.00;;
72286;SDS011;60221;45.696;16.076;2023-07-13T10:10:45;5.10;;;2.30;;
72286;SDS011;60221;45.696;16.076;2023-07-13T10:13:28;4.70;;;2.50;;
72286;SDS011;60221;45.696;16.076;2023-07-13T10:15:56;5.70;;;2.90;;
72286;SDS011;60221;45.696;16.076;2023-07-13T10:18:24;5.70;;;2.70;;
72286;SDS011;60221;45.696;16.076;2023-07-13T10:20:58;5.50;;;2.50;;
72286;SDS011;60221;45.696;16.076;2023-07-13T10:23:50;6.40;;;2.70;;
72286;SDS011;60221;45.696;16.076;2023-07-13T10:26:19;6.00;;;2.40;;
72286;SDS011;60221;45.696;16.076;2023-07-13T10:28:49;5.30;;;2.80;;
72286;SDS011;60221;45.696;16.076;2023-07-13T10:31:18;7.00;;;2.70;;
72286;SDS011;60221;45.696;16.076;2023-07-13T10:33:46;7.40;;;2.50;;
72286;SDS011;60221;45.696;16.076;2023-07-13T10:39:01;6.30;;;2.80;;
72286;SDS011;60221;45.696;16.076;2023-07-13T10:41:29;5.90;;;3.00;;
72286;SDS011;60221;45.696;16.076;2023-07-13T10:43:57;6.40;;;2.50;;
72286;SDS011;60221;45.696;16.076;2023-07-13T10:46:25;5.20;;;2.50;;
72286;SDS011;60221;45.696;16.076;2023-07-13T10:48:57;7.60;;;2.20;;
72286;SDS011;60221;45.696;16.076;2023-07-13T10:51:25;5.90;;;2.70;;
72286;SDS011;60221;45.696;16.076;2023-07-13T10:56:45;5.30;;;3.10;;
72286;SDS011;60221;45.696;16.076;2023-07-13T10:59:26;5.90;;;3.10;;
72286;SDS011;60221;45.696;16.076;2023-07-13T11:04:21;10.90;;;9.10;;
72286;SDS011;60221;45.696;16.076;2023-07-13T11:06:50;10.50;;;3.80;;
72286;SDS011;60221;45.696;16.076;2023-07-13T11:11:56;5.90;;;2.70;;
72286;SDS011;60221;45.696;16.076;2023-07-13T11:15:10;5.20;;;2.70;;
72286;SDS011;60221;45.696;16.076;2023-07-13T11:17:48;8.60;;;3.40;;
72286;SDS011;60221;45.696;16.076;2023-07-13T11:27:50;6.60;;;3.00;;
72286;SDS011;60221;45.696;16.076;2023-07-13T11:30:23;4.60;;;2.30;;
72286;SDS011;60221;45.696;16.076;2023-07-13T11:32:52;6.30;;;2.90;;
72286;SDS011;60221;45.696;16.076;2023-07-13T11:35:29;5.40;;;2.80;;
72286;SDS011;60221;45.696;16.076;2023-07-13T11:37:57;4.70;;;2.70;;
72286;SDS011;60221;45.696;16.076;2023-07-13T11:40:24;4.80;;;2.50;;
72286;SDS011;60221;45.696;16.076;2023-07-13T11:43:00;5.30;;;3.20;;
72286;SDS011;60221;45.696;16.076;2023-07-13T11:45:28;6.40;;;2.90;;
72286;SDS011;60221;45.696;16.076;2023-07-13T11:48:23;6.40;;;2.60;;
72286;SDS011;60221;45.696;16.076;2023-07-13T11:50:51;4.60;;;2.50;;
72286;SDS011;60221;45.696;16.076;2023-07-13T11:53:18;7.60;;;2.90;;
72286;SDS011;60221;45.696;16.076;2023-07-13T11:55:45;6.20;;;2.80;;
72286;SDS011;60221;45.696;16.076;2023-07-13T11:58:14;5.80;;;2.50;;
72286;SDS011;60221;45.696;16.076;2023-07-13T12:00:43;6.80;;;2.70;;
72286;SDS011;60221;45.696;16.076;2023-07-13T12:03:11;6.10;;;2.40;;
72286;SDS011;60221;45.696;16.076;2023-07-13T12:05:44;7.20;;;2.60;;
72286;SDS011;60221;45.696;16.076;2023-07-13T12:08:21;6.50;;;2.80;;
72286;SDS011;60221;45.696;16.076;2023-07-13T12:10:55;7.00;;;2.50;;
72286;SDS011;60221;45.696;16.076;2023-07-13T12:13:22;7.00;;;2.70;;
72286;SDS011;60221;45.696;16.076;2023-07-13T12:15:49;7.50;;;2.70;;
72286;SDS011;60221;45.696;16.076;2023-07-13T12:18:20;6.00;;;2.70;;
72286;SDS011;60221;45.696;16.076;2023-07-13T12:20:47;6.60;;;3.00;;
72286;SDS011;60221;45.696;16.076;2023-07-13T12:25:47;5.40;;;2.70;;
72286;SDS011;60221;45.696;16.076;2023-07-13T12:28:21;4.80;;;2.80;;
72286;SDS011;60221;45.696;16.076;2023-07-13T12:30:48;6.00;;;2.50;;
72286;SDS011;60221;45.696;16.076;2023-07-13T12:33:15;6.40;;;3.20;;
72286;SDS011;60221;45.696;16.076;2023-07-13T12:35:46;4.80;;;2.80;;
72286;SDS011;60221;45.696;16.076;2023-07-13T12:38:15;5.10;;;2.40;;
72286;SDS011;60221;45.696;16.076;2023-07-13T12:40:42;4.70;;;2.60;;
72286;SDS011;60221;45.696;16.076;2023-07-13T12:43:12;5.90;;;2.90;;
72286;SDS011;60221;45.696;16.076;2023-07-13T12:48:23;8.30;;;2.70;;
72286;SDS011;60221;45.696;16.076;2023-07-13T12:51:08;8.10;;;2.80;;
72286;SDS011;60221;45.696;16.076;2023-07-13T12:53:39;6.40;;;2.70;;
72286;SDS011;60221;45.696;16.076;2023-07-13T12:56:08;4.70;;;2.40;;
72286;SDS011;60221;45.696;16.076;2023-07-13T12:58:41;5.20;;;2.30;;
72286;SDS011;60221;45.696;16.076;2023-07-13T13:01:11;6.60;;;2.70;;
72286;SDS011;60221;45.696;16.076;2023-07-13T13:03:46;4.30;;;2.50;;
72286;SDS011;60221;45.696;16.076;2023-07-13T13:08:51;8.00;;;3.10;;
72286;SDS011;60221;45.696;16.076;2023-07-13T13:11:18;5.30;;;2.60;;
72286;SDS011;60221;45.696;16.076;2023-07-13T13:13:45;5.80;;;2.90;;
72286;SDS011;60221;45.696;16.076;2023-07-13T13:16:31;5.60;;;2.40;;
72286;SDS011;60221;45.696;16.076;2023-07-13T13:19:00;4.80;;;2.40;;
72286;SDS011;60221;45.696;16.076;2023-07-13T13:21:28;5.90;;;2.50;;
72286;SDS011;60221;45.696;16.076;2023-07-13T13:23:55;5.40;;;2.50;;
72286;SDS011;60221;45.696;16.076;2023-07-13T13:26:22;6.20;;;2.90;;
72286;SDS011;60221;45.696;16.076;2023-07-13T13:28:49;6.90;;;2.60;;
72286;SDS011;60221;45.696;16.076;2023-07-13T13:31:16;5.60;;;2.50;;
72286;SDS011;60221;45.696;16.076;2023-07-13T13:33:44;5.30;;;2.80;;
72286;SDS011;60221;45.696;16.076;2023-07-13T13:36:22;7.50;;;2.50;;
72286;SDS011;60221;45.696;16.076;2023-07-13T13:38:50;5.90;;;2.50;;
72286;SDS011;60221;45.696;16.076;2023-07-13T13:41:17;7.80;;;2.70;;
72286;SDS011;60221;45.696;16.076;2023-07-13T13:43:44;5.80;;;2.60;;
72286;SDS011;60221;45.696;16.076;2023-07-13T13:46:17;5.00;;;2.60;;
72286;SDS011;60221;45.696;16.076;2023-07-13T13:48:45;7.80;;;2.60;;
72286;SDS011;60221;45.696;16.076;2023-07-13T13:51:14;6.00;;;2.40;;
72286;SDS011;60221;45.696;16.076;2023-07-13T13:53:41;6.10;;;2.40;;
72286;SDS011;60221;45.696;16.076;2023-07-13T13:56:09;5.30;;;2.50;;
72286;SDS011;60221;45.696;16.076;2023-07-13T13:58:37;5.60;;;2.80;;
72286;SDS011;60221;45.696;16.076;2023-07-13T14:01:03;4.80;;;2.40;;
72286;SDS011;60221;45.696;16.076;2023-07-13T14:03:35;7.20;;;2.80;;
72286;SDS011;60221;45.696;16.076;2023-07-13T14:06:01;4.50;;;2.40;;
72286;SDS011;60221;45.696;16.076;2023-07-13T14:08:28;4.90;;;2.70;;
72286;SDS011;60221;45.696;16.076;2023-07-13T14:10:55;6.30;;;2.30;;
72286;SDS011;60221;45.696;16.076;2023-07-13T14:13:35;5.20;;;2.50;;
72286;SDS011;60221;45.696;16.076;2023-07-13T14:16:07;5.20;;;2.60;;
72286;SDS011;60221;45.696;16.076;2023-07-13T14:18:36;4.00;;;2.20;;
72286;SDS011;60221;45.696;16.076;2023-07-13T14:21:03;8.80;;;2.40;;
72286;SDS011;60221;45.696;16.076;2023-07-13T14:23:35;6.90;;;2.50;;
72286;SDS011;60221;45.696;16.076;2023-07-13T14:26:12;5.50;;;2.20;;
72286;SDS011;60221;45.696;16.076;2023-07-13T14:28:41;7.40;;;2.70;;
72286;SDS011;60221;45.696;16.076;2023-07-13T14:31:10;6.00;;;1.90;;
72286;SDS011;60221;45.696;16.076;2023-07-13T14:33:37;8.20;;;2.30;;
72286;SDS011;60221;45.696;16.076;2023-07-13T14:38:43;3.90;;;1.90;;
72286;SDS011;60221;45.696;16.076;2023-07-13T14:41:15;5.00;;;2.00;;
72286;SDS011;60221;45.696;16.076;2023-07-13T14:43:42;6.10;;;2.00;;
72286;SDS011;60221;45.696;16.076;2023-07-13T14:46:16;5.20;;;1.80;;
72286;SDS011;60221;45.696;16.076;2023-07-13T14:48:45;4.90;;;2.10;;
72286;SDS011;60221;45.696;16.076;2023-07-13T14:51:12;5.60;;;2.20;;
72286;SDS011;60221;45.696;16.076;2023-07-13T14:53:39;5.90;;;2.60;;
72286;SDS011;60221;45.696;16.076;2023-07-13T14:56:10;6.60;;;2.70;;
72286;SDS011;60221;45.696;16.076;2023-07-13T14:58:38;5.40;;;2.80;;
72286;SDS011;60221;45.696;16.076;2023-07-13T15:01:12;5.10;;;2.30;;
72286;SDS011;60221;45.696;16.076;2023-07-13T15:03:45;6.50;;;2.80;;
72286;SDS011;60221;45.696;16.076;2023-07-13T15:06:12;7.90;;;2.60;;
72286;SDS011;60221;45.696;16.076;2023-07-13T15:08:40;5.90;;;2.70;;
72286;SDS011;60221;45.696;16.076;2023-07-13T15:11:07;7.90;;;3.00;;
72286;SDS011;60221;45.696;16.076;2023-07-13T15:13:35;8.50;;;3.30;;
72286;SDS011;60221;45.696;16.076;2023-07-13T15:16:02;10.50;;;3.50;;
72286;SDS011;60221;45.696;16.076;2023-07-13T15:18:29;6.40;;;3.10;;
72286;SDS011;60221;45.696;16.076;2023-07-13T15:20:56;6.50;;;2.90;;